Home > Products > Valid Products > TAF

000
FTUS44 KLIX 232100 AAA
TAFNEW
TAF AMD
KNEW 232106Z 2321/2418 14007KT P6SM BKN150
     FM240100 VRB05KT P6SM FEW025 SCT150=



000
FTUS44 KLIX 232100 AAA
TAFNEW
TAF AMD
KNEW 232106Z 2321/2418 14007KT P6SM BKN150
     FM240100 VRB05KT P6SM FEW025 SCT150=



000
FTUS44 KLIX 232100 AAA
TAFMCB
TAF AMD
KMCB 232105Z 2321/2418 VRB03KT P6SM SCT030 BKN050
     FM240100 00000KT P6SM FEW025=



000
FTUS44 KLIX 232100 AAA
TAFMSY
TAF AMD
KMSY 232105Z 2321/2418 VRB03KT P6SM SCT030 BKN050
     FM240100 VRB03KT P6SM FEW025 SCT150=



000
FTUS44 KLIX 232100 AAA
TAFBTR
TAF AMD
KBTR 232105Z 2321/2418 VRB03KT P6SM BKN050
     FM240200 VRB03KT P6SM FEW035 SCT120=



000
FTUS44 KLIX 232100 AAA
TAFGPT
TAF AMD
KGPT 232105Z 2321/2418 18006KT P6SM BKN050 BKN150
     FM240200 VRB03KT P6SM SCT150=



000
FTUS44 KLIX 231700
TAFMSY
TAF
KMSY 231720Z 2318/2418 VRB03KT P6SM SCT030 BKN050
      TEMPO 2320/2324 VRB20KT 3SM TSRA BKN030CB
     FM240100 VRB03KT P6SM FEW025 SCT150=



000
FTUS44 KLIX 231700
TAFMCB
TAF
KMCB 231720Z 2318/2418 VRB03KT P6SM SCT030 BKN050
      TEMPO 2320/2324 3SM TSRA BKN040CB
     FM240100 00000KT P6SM FEW025=



000
FTUS44 KLIX 231700
TAFNEW
TAF
KNEW 231720Z 2318/2418 VRB03KT P6SM SCT030 BKN050
      TEMPO 2320/2324 VRB20KT 3SM TSRA BKN030CB
     FM240100 VRB05KT P6SM FEW025 SCT150=



000
FTUS44 KLIX 231700
TAFGPT
TAF
KGPT 231720Z 2318/2418 18006KT P6SM VCSH BKN050 BKN150
      TEMPO 2318/2322 3SM TSRA BKN035CB
     FM240200 VRB03KT P6SM SCT150=



000
FTUS44 KLIX 231700
TAFBTR
TAF
KBTR 231720Z 2318/2418 VRB03KT P6SM SCT040
     FM231900 VRB03KT P6SM BKN050
      TEMPO 2321/2401 3SM TSRA BKN040CB
     FM240200 VRB03KT P6SM FEW035 SCT120=



000
FTUS44 KLIX 231700
TAFNEW
TAF
KNEW 231720Z 2318/2418 VRB03KT P6SM SCT030 BKN050
      TEMPO 2320/2324 VRB20KT 3SM TSRA BKN030CB
     FM240100 VRB05KT P6SM FEW025 SCT150=



000
FTUS44 KLIX 231100
TAFNEW
TAF
KNEW 231120Z 2312/2412 09007KT P6SM BKN090 BKN150
     FM231600 VRB03KT P6SM SCT030 BKN050
     FM231830 VRB05KT P6SM VCSH BKN040
      TEMPO 2320/2324 VRB20KT 3SM TSRA BKN030CB
     FM240100 VRB05KT P6SM FEW025 SCT150=



000
FTUS44 KLIX 231100
TAFGPT
TAF
KGPT 231120Z 2312/2412 VRB03KT P6SM SCT150
     FM231500 00000KT P6SM SCT030 BKN050
     FM231700 18006KT P6SM VCSH BKN050 BKN150
      TEMPO 2318/2322 3SM TSRA BKN035CB
     FM240200 VRB03KT P6SM SCT150=



000
FTUS44 KLIX 231100
TAFNEW
TAF
KNEW 231120Z 2312/2412 09007KT P6SM BKN090 BKN150
     FM231600 VRB03KT P6SM SCT030 BKN050
     FM231830 VRB05KT P6SM VCSH BKN040
      TEMPO 2320/2324 VRB20KT 3SM TSRA BKN030CB
     FM240100 VRB05KT P6SM FEW025 SCT150=



000
FTUS44 KLIX 231100
TAFMSY
TAF
KMSY 231120Z 2312/2412 00000KT P6SM FEW030 SCT150
     FM231600 VRB03KT P6SM SCT030 BKN050
     FM231830 VRB05KT P6SM VCSH BKN040
      TEMPO 2320/2324 VRB20KT 3SM TSRA BKN030CB
     FM240100 VRB05KT P6SM FEW025 SCT150=



000
FTUS44 KLIX 231100
TAFMCB
TAF
KMCB 231120Z 2312/2412 06004KT 4SM BR SCT008
      TEMPO 2312/2313 1SM BR OVC003
     FM231400 VRB03KT P6SM SCT030 BKN050
      TEMPO 2320/2324 3SM TSRA BKN040CB
     FM240100 00000KT P6SM FEW025=



000
FTUS44 KLIX 231100
TAFBTR
TAF
KBTR 231120Z 2312/2412 VRB03KT P6SM FEW250
     FM231600 VRB03KT P6SM SCT040
     FM231900 VRB03KT P6SM VCSH SCT035 BKN050
      TEMPO 2321/2401 3SM TSRA BKN040CB
     FM240200 VRB03KT P6SM FEW035 SCT120=



000
FTUS44 KLIX 230500
TAFMCB
TAF
KMCB 230538Z 2306/2406 06004KT P6SM FEW100
     FM231600 VRB03KT P6SM SCT030 BKN050
      TEMPO 2320/2324 3SM TSRA BKN040CB
     FM240100 00000KT P6SM FEW025=



000
FTUS44 KLIX 230500
TAFMSY
TAF
KMSY 230538Z 2306/2406 00000KT P6SM SCT150
     FM231600 VRB03KT P6SM SCT030 BKN050
     FM231830 VRB05KT P6SM VCSH BKN040
      TEMPO 2320/2324 VRB20KT 3SM TSRA BKN030CB
     FM240100 VRB05KT P6SM FEW025 SCT150=



000
FTUS44 KLIX 230500
TAFBTR
TAF
KBTR 230538Z 2306/2406 VRB03KT P6SM FEW250
     FM231600 VRB03KT P6SM SCT040
     FM231900 VRB03KT P6SM VCSH SCT035 BKN050
      TEMPO 2321/2401 3SM TSRA BKN040CB
     FM240200 VRB03KT P6SM FEW035 SCT120=



000
FTUS44 KLIX 230500
TAFGPT
TAF
KGPT 230538Z 2306/2406 VRB03KT P6SM SCT150
     FM231500 00000KT P6SM SCT030 BKN050
     FM231700 18006KT P6SM VCSH BKN050 BKN150
      TEMPO 2318/2322 3SM TSRA BKN035CB
     FM240200 VRB03KT P6SM SCT150=



000
FTUS44 KLIX 230500
TAFNEW
TAF
KNEW 230538Z 2306/2406 00000KT P6SM SCT150
     FM231600 VRB03KT P6SM SCT030 BKN050
     FM231830 VRB05KT P6SM VCSH BKN040
      TEMPO 2320/2324 VRB20KT 3SM TSRA BKN030CB
     FM240100 VRB05KT P6SM FEW025 SCT150=



000
FTUS44 KLIX 230000 AAA
TAFNEW
TAF AMD
KNEW 230035Z 2301/2324 00000KT P6SM BKN150
     FM230100 00000KT P6SM SCT150
     FM231600 VRB03KT P6SM SCT030 BKN050
      TEMPO 2319/2322 3SM TSRA BKN035CB=



000
FTUS44 KLIX 230000 AAA
TAFNEW
TAF AMD
KNEW 230035Z 2301/2324 00000KT P6SM BKN150
     FM230100 00000KT P6SM SCT150
     FM231600 VRB03KT P6SM SCT030 BKN050
      TEMPO 2319/2322 3SM TSRA BKN035CB=



000
FTUS44 KLIX 222300
TAFNEW
TAF
KNEW 222337Z 2300/2324 19009KT P6SM SCT040 OVC250
      TEMPO 2300/2301 03018G30KT 1SM +TSRA BR OVC035CB
     FM230200 00000KT P6SM SCT150
     FM231600 VRB03KT P6SM SCT030 BKN050
      TEMPO 2319/2322 3SM TSRA BKN035CB=



000
FTUS44 KLIX 222300
TAFGPT
TAF
KGPT 222337Z 2300/2324 03005KT P6SM SCT035 BKN070
     FM230200 VRB03KT P6SM SCT150
     FM231600 00000KT P6SM SCT030 BKN050 PROB30 2318/2322 3SM TSRA
      BKN035CB=



000
FTUS44 KLIX 222300
TAFBTR
TAF
KBTR 222337Z 2300/2324 VRB04KT P6SM VCSH SCT040
      TEMPO 2300/2301 -TSRA BKN035CB
     FM230100 00000KT P6SM FEW250
     FM231600 VRB03KT P6SM SCT040 PROB30 2319/2323 3SM TSRA
      BKN040CB=



000
FTUS44 KLIX 222300
TAFMSY
TAF
KMSY 222337Z 2300/2324 18003KT P6SM FEW060 BKN250
     FM230200 00000KT P6SM SCT150
     FM231600 VRB03KT P6SM SCT030 BKN050 PROB30 2319/2322 VRB20KT
      3SM TSRA BKN040CB=



000
FTUS44 KLIX 222300
TAFNEW
TAF
KNEW 222337Z 2300/2324 19009KT P6SM SCT040 OVC250
      TEMPO 2300/2301 03018G30KT 1SM +TSRA BR OVC035CB
     FM230200 00000KT P6SM SCT150
     FM231600 VRB03KT P6SM SCT030 BKN050
      TEMPO 2319/2322 3SM TSRA BKN035CB=



000
FTUS44 KLIX 222300
TAFMCB
TAF
KMCB 222337Z 2300/2324 06004KT P6SM FEW100
     FM231600 00000KT P6SM SCT030 BKN050 PROB30 2320/2324 3SM TSRA
      BKN040CB=



000
FTUS44 KLIX 221700
TAFNEW
TAF
KNEW 221720Z 2218/2318 VRB05KT P6SM VCTS SCT030CB BKN050
     FM230200 00000KT P6SM SCT150
     FM231600 VRB03KT P6SM VCTS SCT030CB BKN050=



000
FTUS44 KLIX 221700
TAFNEW
TAF
KNEW 221720Z 2218/2318 VRB05KT P6SM VCTS SCT030CB BKN050
     FM230200 00000KT P6SM SCT150
     FM231600 VRB03KT P6SM VCTS SCT030CB BKN050=



000
FTUS44 KLIX 221700
TAFBTR
TAF
KBTR 221720Z 2218/2318 VRB03KT P6SM SCT030 BKN050
     FM231200 00000KT P6SM SCT150
     FM231600 VRB03KT P6SM VCTS SCT030CB BKN050=



000
FTUS44 KLIX 221700
TAFGPT
TAF
KGPT 221720Z 2218/2318 17005KT P6SM VCTS SCT030CB BKN050
     FM230200 VRB03KT P6SM SCT150
     FM231600 00000KT P6SM VCTS SCT030CB BKN050=



000
FTUS44 KLIX 221700
TAFMSY
TAF
KMSY 221720Z 2218/2318 04005KT P6SM VCTS SCT030CB BKN050
     FM230200 00000KT P6SM SCT150
     FM231600 VRB03KT P6SM VCTS SCT030CB BKN050=



000
FTUS44 KLIX 221700
TAFMCB
TAF
KMCB 221720Z 2218/2318 VRB05KT P6SM SCT030 BKN050
     FM230000 VRB03KT P6SM SCT150
     FM231600 00000KT P6SM VCTS SCT030CB BKN050=



000
FTUS44 KLIX 221100
TAFNEW
TAF
KNEW 221133Z 2212/2312 21005KT P6SM SKC
     FM221600 VRB05KT P6SM SCT040
     FM222000 VRB06KT P6SM VCTS SCT035CB BKN050
     FM230300 20006KT P6SM BKN050=



000
FTUS44 KLIX 221100
TAFMCB
TAF
KMCB 221133Z 2212/2312 00000KT P6SM SKC
     FM221400 VRB03KT P6SM SCT050
     FM221800 VRB05KT P6SM VCTS SCT035CB BKN050
      TEMPO 2220/2224 VRB20G30KT 2SM TSRA BKN035CB
     FM230100 VRB03KT P6SM SCT050 BKN160=



000
FTUS44 KLIX 221100
TAFMSY
TAF
KMSY 221133Z 2212/2312 00000KT P6SM SKC
     FM221600 VRB05KT P6SM SCT040
     FM222000 VRB06KT P6SM VCTS SCT035CB BKN050
     FM230300 20006KT P6SM BKN050=



000
FTUS44 KLIX 221100
TAFNEW
TAF
KNEW 221133Z 2212/2312 21005KT P6SM SKC
     FM221600 VRB05KT P6SM SCT040
     FM222000 VRB06KT P6SM VCTS SCT035CB BKN050
     FM230300 20006KT P6SM BKN050=



000
FTUS44 KLIX 221100
TAFGPT
TAF
KGPT 221133Z 2212/2312 VRB03KT P6SM SKC
     FM221430 VRB05KT P6SM SCT050 SCT200
      TEMPO 2219/2223 3SM TSRA BKN035CB
     FM230300 VRB03KT P6SM FEW040 SCT200=



000
FTUS44 KLIX 221100
TAFBTR
TAF
KBTR 221133Z 2212/2312 00000KT P6SM SKC
     FM221500 VRB05KT P6SM SCT050
     FM221900 VRB05KT P6SM VCTS SCT040CB BKN060
     FM230200 VRB03KT P6SM SCT060 BKN200=



000
FTUS44 KLIX 220500
TAFMSY
TAF
KMSY 220526Z 2206/2306 VRB05KT P6SM SKC
     FM221600 35005KT P6SM SCT040
     FM221900 03006KT P6SM BKN040=



000
FTUS44 KLIX 220500
TAFMCB
TAF
KMCB 220526Z 2206/2306 00000KT P6SM SKC
     FM220900 00000KT 4SM BR SKC
     FM221400 36004KT P6SM BKN050=



000
FTUS44 KLIX 220500
TAFNEW
TAF
KNEW 220526Z 2206/2306 21005KT P6SM SKC
     FM221200 34008KT P6SM SCT040
     FM221600 35008KT P6SM BKN040=



000
FTUS44 KLIX 220500
TAFBTR
TAF
KBTR 220526Z 2206/2306 VRB03KT P6SM SKC
     FM221800 07005KT P6SM BKN050=



000
FTUS44 KLIX 220500
TAFGPT
TAF
KGPT 220526Z 2206/2306 00000KT P6SM SKC
     FM221200 VRB03KT P6SM BKN060
     FM221800 17007KT P6SM BKN050=



000
FTUS44 KLIX 212300 RRA
TAFMSY
TAF
KMSY 212340Z 2200/2224 30004KT P6SM SKC
     FM221600 35005KT P6SM SCT040
     FM221900 03006KT P6SM BKN040=



000
FTUS44 KLIX 212300 RRA
TAFMCB
TAF
KMCB 212340Z 2200/2224 34003KT P6SM SKC
     FM220900 00000KT 4SM BR SKC
     FM221400 36004KT P6SM BKN050=



000
FTUS44 KLIX 212300 RRA
TAFGPT
TAF
KGPT 212340Z 2200/2224 00000KT P6SM SKC
     FM221200 VRB03KT P6SM BKN060
     FM221800 17007KT P6SM BKN050=



000
FTUS44 KLIX 212300 RRA
TAFNEW
TAF
KNEW 212340Z 2200/2224 21005KT P6SM SKC
     FM221200 34008KT P6SM SCT040
     FM221600 35008KT P6SM BKN040=



000
FTUS44 KLIX 212300 RRA
TAFBTR
TAF
KBTR 212340Z 2200/2224 01004KT P6SM SKC
     FM221800 07005KT P6SM BKN050=



000
FTUS44 KLIX 212300 RRA
TAFNEW
TAF
KNEW 212340Z 2200/2224 21005KT P6SM SKC
     FM221200 34008KT P6SM SCT040
     FM221600 35008KT P6SM BKN040=



000
FTUS44 KLIX 211900 AAA
TAFBTR
TAF AMD
KBTR 211922Z 2119/2218 32005KT P6SM SCT025 BKN045
     FM221600 VRB03KT P6SM SCT025 BKN050=



000
FTUS44 KLIX 211700
TAFNEW
TAF
KNEW 211720Z 2118/2218 31005KT P6SM SCT045
     FM212200 24004KT P6SM SCT040
     FM221700 34005KT P6SM SCT040=



000
FTUS44 KLIX 211700
TAFMSY
TAF
KMSY 211720Z 2118/2218 35005KT P6SM FEW025 SCT035
     FM212300 24005KT P6SM SCT040
     FM221200 33005KT P6SM SCT025 BKN040=



000
FTUS44 KLIX 211700
TAFMCB
TAF
KMCB 211720Z 2118/2218 32006KT P6SM FEW035 SCT050
      TEMPO 2208/2212 5SM BR
     FM221400 VRB03KT P6SM SCT035 BKN050=



000
FTUS44 KLIX 211700
TAFBTR
TAF
KBTR 211720Z 2118/2218 32005KT P6SM SCT025 BKN045
      TEMPO 2118/2122 BKN025
     FM221600 VRB03KT P6SM SCT025 BKN050=



000
FTUS44 KLIX 211700
TAFGPT
TAF
KGPT 211720Z 2118/2218 33008KT P6SM SCT035
     FM212200 20006KT P6SM SCT050
     FM221700 19006KT P6SM VCTS SCT050CB=



000
FTUS44 KLIX 211700
TAFNEW
TAF
KNEW 211720Z 2118/2218 31005KT P6SM SCT045
     FM212200 24004KT P6SM SCT040
     FM221700 34005KT P6SM SCT040=



000
FTUS44 KLIX 211400 AAA
TAFBTR
TAF AMD
KBTR 211448Z 2115/2212 00000KT P6SM SKC
     FM211700 VRB03KT P6SM SCT040
     FM220000 00000KT P6SM SKC
     FM220900 00000KT 4SM BR SCT008=



000
FTUS44 KLIX 211400 AAA
TAFMSY
TAF AMD
KMSY 211448Z 2115/2212 35005KT P6SM SCT025
     FM220000 25005KT P6SM FEW250
     FM221000 VRB03KT 5SM BR FEW010=



000
FTUS44 KLIX 211100
TAFNEW
TAF
KNEW 211120Z 2112/2212 26006KT P6SM VCSH FEW008 BKN040
      TEMPO 2112/2113 1SM BR VV002
     FM211400 VRB05KT P6SM SCT025
     FM211600 VRB06KT P6SM VCTS SCT035CB
      TEMPO 2117/2121 VRB20KT 2SM TSRA BKN025CB
     FM220000 25005KT P6SM FEW250=



000
FTUS44 KLIX 211100
TAFGPT
TAF
KGPT 211120Z 2112/2212 VRB03KT P6SM FEW060 BKN090
     FM211500 32005KT P6SM SCT035
     FM211800 28004KT P6SM SCT050
      TEMPO 2120/2124 VRB25KT 2SM TSRA BKN025CB
     FM220000 VRB03KT P6SM BKN060
     FM220800 VRB03KT 3SM BR FEW040=



000
FTUS44 KLIX 211100
TAFMCB
TAF
KMCB 211120Z 2112/2212 35003KT P6SM SKC
     FM211630 VRB03KT P6SM SCT050
     FM220000 00000KT P6SM SKC=



000
FTUS44 KLIX 211100
TAFNEW
TAF
KNEW 211120Z 2112/2212 26006KT P6SM VCSH FEW008 BKN040
      TEMPO 2112/2113 1SM BR VV002
     FM211400 VRB05KT P6SM SCT025
     FM211600 VRB06KT P6SM VCTS SCT035CB
      TEMPO 2117/2121 VRB20KT 2SM TSRA BKN025CB
     FM220000 25005KT P6SM FEW250=



000
FTUS44 KLIX 211100
TAFMSY
TAF
KMSY 211120Z 2112/2212 23006KT 3SM BR VCSH SCT010 BKN250
      TEMPO 2112/2113 1SM BR VV002
     FM211400 32005KT P6SM SCT025
      TEMPO 2115/2119 VRB20KT 2SM TSRA BKN025CB
     FM220000 25005KT P6SM FEW250
     FM221000 VRB03KT 5SM BR FEW010=



000
FTUS44 KLIX 211100
TAFBTR
TAF
KBTR 211120Z 2112/2212 00000KT P6SM SCT015 BKN025
      TEMPO 2112/2113 2SM BR VV004
     FM211700 VRB03KT P6SM SCT040
     FM220000 00000KT P6SM SKC
     FM220900 00000KT 4SM BR SCT008=



000
FTUS44 KLIX 211000 AAA
TAFBTR
TAF AMD
KBTR 211022Z 2110/2206 00000KT P6SM SCT015 BKN025
      TEMPO 2110/2113 2SM BR VV004
     FM211700 VRB03KT P6SM SCT040
     FM220000 00000KT P6SM SKC=



000
FTUS44 KLIX 211000 AAA
TAFMCB
TAF AMD
KMCB 211021Z 2110/2206 35003KT P6SM SKC
     FM211400 VRB03KT P6SM SCT025
     FM211700 VRB03KT P6SM SCT040
     FM220000 00000KT P6SM SKC=



000
FTUS44 KLIX 211000 AAA
TAFMSY
TAF AMD
KMSY 211013Z 2110/2206 23006KT 3SM BR SCT010 BKN250
      TEMPO 2110/2113 1SM BR VV002
     FM211400 32005KT P6SM SCT025
      TEMPO 2115/2119 VRB20KT 2SM TSRA BKN025CB
     FM220000 25005KT P6SM FEW250=



000
FTUS44 KLIX 210500
TAFBTR
TAF
KBTR 210520Z 2106/2206 00000KT P6SM SCT025
      TEMPO 2110/2112 5SM BR
     FM211700 VRB03KT P6SM SCT040
     FM220000 00000KT P6SM SKC=



000
FTUS44 KLIX 210500
TAFMSY
TAF
KMSY 210520Z 2106/2206 23006KT P6SM BKN250
     FM211400 32005KT P6SM SCT025
      TEMPO 2115/2119 VRB20KT 2SM TSRA BKN025CB
     FM220000 25005KT P6SM FEW250=



000
FTUS44 KLIX 210500
TAFNEW
TAF
KNEW 210520Z 2106/2206 24008KT P6SM SKC
     FM211400 32005KT P6SM SCT035
      TEMPO 2116/2120 VRB25KT 2SM TSRA BKN025CB
     FM220000 VRB03KT P6SM FEW250=



000
FTUS44 KLIX 210500
TAFNEW
TAF
KNEW 210520Z 2106/2206 24008KT P6SM SKC
     FM211400 32005KT P6SM SCT035
      TEMPO 2116/2120 VRB25KT 2SM TSRA BKN025CB
     FM220000 VRB03KT P6SM FEW250=



000
FTUS44 KLIX 210500
TAFGPT
TAF
KGPT 210520Z 2106/2206 00000KT P6SM SKC
     FM211700 28004KT P6SM SCT040
      TEMPO 2120/2124 VRB25KT 2SM TSRA BKN025CB
     FM220000 VRB03KT P6SM SKC=



000
FTUS44 KLIX 210500
TAFMCB
TAF
KMCB 210520Z 2106/2206 35003KT P6SM SKC
      TEMPO 2108/2112 3SM BR OVC005
     FM211400 VRB03KT P6SM SCT025
     FM211700 VRB03KT P6SM SCT040
     FM220000 00000KT P6SM SKC=



000
FTUS44 KLIX 202300 RRA
TAFMSY
TAF
KMSY 202353Z 2100/2124 21006KT P6SM SCT019 BKN110 BKN250
     FM211400 32005KT P6SM SCT025
      TEMPO 2115/2119 VRB20KT 2SM TSRA BKN025CB=



000
FTUS44 KLIX 202300 RRA
TAFGPT
TAF
KGPT 202353Z 2100/2124 22007KT P6SM BKN020
     FM210100 VRB03KT P6SM SCT020
     FM211700 28004KT P6SM SCT040
      TEMPO 2120/2124 VRB25KT 2SM TSRA BKN025CB=



000
FTUS44 KLIX 202300 RRA
TAFNEW
TAF
KNEW 202353Z 2100/2124 23007KT P6SM SCT010
     FM210100 27005KT P6SM SCT010
     FM211400 32005KT P6SM SCT025
      TEMPO 2116/2120 VRB25KT 2SM TSRA BKN025CB=



000
FTUS44 KLIX 202300 RRA
TAFMCB
TAF
KMCB 202353Z 2100/2124 00000KT P6SM FEW029 SCT035
     FM210600 00000KT P6SM BKN010
      TEMPO 2108/2112 3SM BR OVC005
     FM211400 VRB03KT P6SM SCT025
     FM211700 VRB03KT P6SM SCT040=



000
FTUS44 KLIX 202300 RRA
TAFNEW
TAF
KNEW 202353Z 2100/2124 23007KT P6SM SCT010
     FM210100 27005KT P6SM SCT010
     FM211400 32005KT P6SM SCT025
      TEMPO 2116/2120 VRB25KT 2SM TSRA BKN025CB=



000
FTUS44 KLIX 202300 RRA
TAFBTR
TAF
KBTR 202353Z 2100/2124 26004KT P6SM SCT030
     FM210600 00000KT P6SM SCT010
      TEMPO 2110/2112 5SM BR
     FM211400 00000KT P6SM SCT025
     FM211700 VRB03KT P6SM SCT040=



    US Dept of Commerce
    National Oceanic and Atmospheric Administration
    National Weather Service
    1325 East West Highway
    Silver Spring, MD 20910
    Page Author: NWS Internet Services Team
Disclaimer
Information Quality
Credits
Glossary
Privacy Policy
Freedom of Information Act (FOIA)
About Us
Career Opportunities